createdAt,value
2022-08-12T00:02:45.394Z,20.60
2022-08-12T00:05:32.451Z,20.50
2022-08-12T00:08:35.691Z,20.30
2022-08-12T00:11:23.216Z,20.20
2022-08-12T00:14:08.767Z,20.10
2022-08-12T00:16:56.139Z,20.00
2022-08-12T00:19:41.444Z,19.90
2022-08-12T00:22:29.368Z,19.80
2022-08-12T00:25:19.185Z,19.70
2022-08-12T00:28:06.474Z,19.60
2022-08-12T00:30:53.427Z,19.50
2022-08-12T00:33:52.463Z,19.50
2022-08-12T00:36:50.288Z,19.50
2022-08-12T00:39:35.978Z,19.50
2022-08-12T00:42:12.886Z,19.40
2022-08-12T00:44:44.857Z,19.30
2022-08-12T00:47:24.635Z,19.20
2022-08-12T00:49:55.769Z,19.20
2022-08-12T00:52:23.574Z,18.90
2022-08-12T00:55:01.039Z,18.80
2022-08-12T00:57:29.254Z,18.80
2022-08-12T00:59:59.698Z,18.70
2022-08-12T01:02:32.956Z,18.60
2022-08-12T01:05:20.246Z,18.50
2022-08-12T01:08:07.240Z,18.60
2022-08-12T01:10:59.653Z,18.50
2022-08-12T01:13:28.825Z,18.50
2022-08-12T01:15:58.691Z,18.50
2022-08-12T01:18:32.549Z,18.50
2022-08-12T01:21:27.256Z,18.40
2022-08-12T01:23:59.832Z,18.40
2022-08-12T01:26:47.969Z,18.40
2022-08-12T01:29:26.328Z,18.30
2022-08-12T01:31:58.408Z,18.20
2022-08-12T01:34:36.288Z,18.20
2022-08-12T01:37:07.491Z,18.10
2022-08-12T01:40:33.510Z,18.00
2022-08-12T01:42:49.567Z,18.00
2022-08-12T01:45:24.456Z,18.00
2022-08-12T01:48:13.218Z,17.90
2022-08-12T01:51:09.538Z,17.80
2022-08-12T01:53:51.510Z,17.80
2022-08-12T01:56:22.868Z,17.80
2022-08-12T01:59:13.229Z,17.80
2022-08-12T02:01:41.569Z,17.70
2022-08-12T02:04:57.828Z,17.60
2022-08-12T02:08:21.110Z,17.50
2022-08-12T02:11:17.312Z,17.50
2022-08-12T02:13:50.726Z,17.50
2022-08-12T02:16:39.220Z,17.40
2022-08-12T02:19:22.456Z,17.40
2022-08-12T02:22:31.440Z,17.30
2022-08-12T02:25:26.871Z,17.20
2022-08-12T02:27:55.036Z,17.10
2022-08-12T02:30:33.203Z,17.20
2022-08-12T02:33:10.808Z,17.10
2022-08-12T02:35:39.824Z,17.10
2022-08-12T02:38:09.363Z,17.00
2022-08-12T02:40:38.985Z,16.90
2022-08-12T02:43:17.156Z,17.00
2022-08-12T02:45:48.016Z,17.00
2022-08-12T02:48:24.721Z,16.90
2022-08-12T02:50:56.480Z,16.80
2022-08-12T02:53:24.331Z,16.80
2022-08-12T02:55:51.336Z,16.90
2022-08-12T02:58:19.788Z,16.70
2022-08-12T03:00:47.393Z,16.70
2022-08-12T03:03:15.232Z,16.70
2022-08-12T03:05:50.841Z,16.60
2022-08-12T03:08:32.080Z,16.60
2022-08-12T03:11:17.607Z,16.60
2022-08-12T03:13:52.973Z,16.50
2022-08-12T03:16:21.064Z,16.40
2022-08-12T03:18:49.405Z,16.30
2022-08-12T03:21:57.971Z,16.20
2022-08-12T03:24:08.388Z,16.10
2022-08-12T03:26:36.635Z,16.20
2022-08-12T03:29:07.386Z,16.40
2022-08-12T03:31:34.627Z,16.40
2022-08-12T03:34:04.677Z,16.40
2022-08-12T03:36:35.223Z,16.30
2022-08-12T03:39:16.624Z,16.30
2022-08-12T03:41:55.356Z,16.20
2022-08-12T03:45:00.536Z,16.20
2022-08-12T03:48:11.083Z,16.20
2022-08-12T03:50:59.566Z,16.30
2022-08-12T03:53:48.388Z,16.20
2022-08-12T03:56:34.164Z,16.10
2022-08-12T03:59:22.770Z,16.10
2022-08-12T04:01:57.265Z,16.10
2022-08-12T04:04:33.966Z,16.10
2022-08-12T04:07:07.935Z,16.10
2022-08-12T04:09:38.073Z,16.00
2022-08-12T04:12:26.074Z,15.90
2022-08-12T04:14:54.704Z,15.90
2022-08-12T04:17:22.057Z,15.90
2022-08-12T04:19:49.169Z,15.70
2022-08-12T04:22:16.572Z,15.70
2022-08-12T04:24:44.235Z,15.70
2022-08-12T04:27:17.581Z,15.60
2022-08-12T04:30:30.098Z,15.60
2022-08-12T04:32:32.285Z,15.70
2022-08-12T04:34:59.191Z,15.60
2022-08-12T04:37:26.181Z,15.50
2022-08-12T04:39:54.263Z,15.50
2022-08-12T04:42:21.866Z,15.40
2022-08-12T04:44:48.832Z,15.40
2022-08-12T04:47:16.865Z,15.40
2022-08-12T04:49:45.852Z,15.30
2022-08-12T04:52:13.007Z,15.20
2022-08-12T04:54:39.948Z,15.30
2022-08-12T04:57:09.525Z,15.30
2022-08-12T04:59:48.246Z,15.20
2022-08-12T05:02:21.064Z,15.10
2022-08-12T05:04:51.214Z,15.00
2022-08-12T05:07:18.143Z,15.00
2022-08-12T05:09:59.237Z,15.10
2022-08-12T05:12:34.478Z,15.20
2022-08-12T05:15:01.738Z,15.30
2022-08-12T05:17:28.713Z,15.40
2022-08-12T05:19:57.139Z,15.50
2022-08-12T05:22:25.132Z,15.60
2022-08-12T05:24:52.228Z,15.70
2022-08-12T05:27:19.058Z,15.80
2022-08-12T05:30:07.746Z,15.80
2022-08-12T05:32:37.093Z,16.00
2022-08-12T05:35:06.937Z,16.00
2022-08-12T05:37:37.144Z,16.10
2022-08-12T05:40:10.694Z,16.10
2022-08-12T05:42:38.308Z,16.30
2022-08-12T05:45:06.667Z,16.30
2022-08-12T05:47:52.987Z,16.50
2022-08-12T05:50:20.541Z,16.60
2022-08-12T05:52:48.339Z,16.60
2022-08-12T05:55:15.657Z,16.70
2022-08-12T05:57:48.402Z,16.80
2022-08-12T06:00:17.323Z,17.00
2022-08-12T06:02:46.460Z,17.00
2022-08-12T06:05:14.056Z,17.10
2022-08-12T06:08:01.528Z,17.30
2022-08-12T06:10:31.632Z,17.40
2022-08-12T06:13:00.982Z,17.60
2022-08-12T06:15:28.390Z,17.70
2022-08-12T06:17:55.515Z,17.80
2022-08-12T06:20:29.960Z,17.90
2022-08-12T06:23:01.744Z,18.10
2022-08-12T06:25:29.188Z,18.20
2022-08-12T06:28:07.590Z,18.30
2022-08-12T06:30:38.544Z,18.40
2022-08-12T06:33:24.555Z,18.60
2022-08-12T06:35:57.815Z,18.70
2022-08-12T06:38:27.560Z,18.90
2022-08-12T06:41:15.251Z,19.00
2022-08-12T06:44:06.829Z,19.10
2022-08-12T06:46:32.774Z,19.20
2022-08-12T06:49:00.031Z,19.30
2022-08-12T06:51:29.290Z,19.40
2022-08-12T06:53:57.924Z,19.50
2022-08-12T06:56:39.954Z,19.70
2022-08-12T06:59:14.587Z,19.80
2022-08-12T07:01:41.551Z,19.90
2022-08-12T07:04:36.695Z,20.10
2022-08-12T07:07:05.540Z,20.30
2022-08-12T07:10:00.189Z,20.40
2022-08-12T07:12:19.960Z,20.50
2022-08-12T07:14:51.516Z,20.70
2022-08-12T07:17:18.851Z,20.80
2022-08-12T07:19:48.545Z,20.90
2022-08-12T07:22:16.174Z,21.00
2022-08-12T07:24:43.606Z,21.20
2022-08-12T07:27:10.432Z,21.20
2022-08-12T07:30:03.649Z,21.50
2022-08-12T07:32:25.512Z,21.50
2022-08-12T07:34:54.583Z,21.60
2022-08-12T07:37:21.495Z,21.70
2022-08-12T07:39:51.381Z,21.80
2022-08-12T07:42:28.773Z,22.10
2022-08-12T07:44:56.363Z,22.10
2022-08-12T07:47:24.177Z,22.20
2022-08-12T07:50:03.191Z,22.30
2022-08-12T07:52:38.226Z,22.50
2022-08-12T07:55:06.066Z,22.70
2022-08-12T07:57:33.286Z,22.90
2022-08-12T08:00:05.836Z,23.00
2022-08-12T08:02:36.985Z,23.20
2022-08-12T08:05:05.196Z,23.40
2022-08-12T08:07:32.052Z,23.50
2022-08-12T08:10:00.860Z,23.70
2022-08-12T08:12:47.611Z,23.80
2022-08-12T08:15:15.705Z,23.90
2022-08-12T08:18:01.728Z,24.10
2022-08-12T08:20:44.341Z,24.20
2022-08-12T08:23:17.329Z,24.30
2022-08-12T08:25:45.145Z,24.40
2022-08-12T08:28:17.221Z,24.50
2022-08-12T08:30:45.925Z,24.70
2022-08-12T08:33:24.504Z,24.70
2022-08-12T08:36:02.221Z,24.90
2022-08-12T08:38:32.856Z,25.10
2022-08-12T08:42:17.697Z,25.30
2022-08-12T08:44:10.776Z,25.40
2022-08-12T08:46:38.827Z,25.60
2022-08-12T08:49:06.093Z,25.70
2022-08-12T08:51:33.605Z,25.80
2022-08-12T08:54:00.459Z,25.90
2022-08-12T08:56:29.382Z,26.00
2022-08-12T08:58:57.564Z,26.10
2022-08-12T09:01:25.396Z,26.20
2022-08-12T09:05:08.206Z,26.40
2022-08-12T09:06:42.026Z,26.40
2022-08-12T09:09:20.940Z,26.70
2022-08-12T09:12:10.557Z,26.90
2022-08-12T09:14:39.030Z,27.00
2022-08-12T09:17:06.017Z,27.30
2022-08-12T09:19:33.456Z,27.40
2022-08-12T09:22:00.539Z,27.50
2022-08-12T09:24:27.830Z,27.60
2022-08-12T09:26:54.884Z,27.70
2022-08-12T09:30:10.745Z,27.90
2022-08-12T09:32:11.587Z,28.00
2022-08-12T09:34:56.622Z,28.10
2022-08-12T09:37:28.244Z,28.20
2022-08-12T09:41:03.860Z,28.30
2022-08-12T09:43:22.307Z,28.50
2022-08-12T09:46:11.676Z,28.60
2022-08-12T09:48:39.998Z,28.80
2022-08-12T09:51:20.361Z,29.00
2022-08-12T09:54:05.416Z,29.00
2022-08-12T09:56:58.500Z,29.00
2022-08-12T10:00:12.997Z,29.10
2022-08-12T10:02:44.845Z,29.10
2022-08-12T10:04:59.537Z,29.30
2022-08-12T10:07:31.023Z,29.40
2022-08-12T10:10:25.126Z,29.60
2022-08-12T10:13:34.723Z,29.80
2022-08-12T10:16:06.578Z,30.00
2022-08-12T10:18:51.326Z,30.10
2022-08-12T10:21:41.259Z,30.20
2022-08-12T10:24:20.001Z,30.20
2022-08-12T10:27:06.355Z,30.30
2022-08-12T10:30:40.546Z,30.30
2022-08-12T10:32:44.132Z,30.30
2022-08-12T10:35:15.380Z,30.40
2022-08-12T10:38:37.835Z,30.60
2022-08-12T10:40:32.949Z,30.70
2022-08-12T10:43:19.915Z,30.80
2022-08-12T10:45:49.317Z,30.90
2022-08-12T10:48:21.129Z,31.00
2022-08-12T10:51:02.263Z,31.10
2022-08-12T10:53:43.900Z,31.10
2022-08-12T10:56:17.359Z,31.10
2022-08-12T10:58:46.273Z,31.20
2022-08-12T11:01:49.331Z,31.20
2022-08-12T11:04:31.477Z,31.20
2022-08-12T11:07:07.183Z,31.30
2022-08-12T11:10:00.223Z,31.50
2022-08-12T11:12:55.346Z,31.70
2022-08-12T11:15:33.174Z,31.80
2022-08-12T11:18:12.123Z,31.80
2022-08-12T11:20:45.537Z,31.80
2022-08-12T11:23:25.388Z,32.00
2022-08-12T11:26:04.971Z,32.00
2022-08-12T11:28:34.964Z,32.00
2022-08-12T11:31:05.233Z,32.20
2022-08-12T11:34:06.569Z,32.20
2022-08-12T11:36:22.226Z,32.20
2022-08-12T11:38:50.810Z,32.20
2022-08-12T11:41:27.995Z,32.40
2022-08-12T11:43:58.591Z,32.40
2022-08-12T11:46:25.969Z,32.40
2022-08-12T11:48:52.939Z,32.50
2022-08-12T11:51:21.012Z,32.40
2022-08-12T11:53:58.232Z,32.60
2022-08-12T11:56:38.059Z,32.60
2022-08-12T12:02:01.388Z,32.70
2022-08-12T12:04:31.943Z,32.70
2022-08-12T12:07:07.551Z,32.70
2022-08-12T12:09:52.560Z,32.80
2022-08-12T12:12:22.934Z,32.80
2022-08-12T12:14:54.715Z,32.80
2022-08-12T12:17:26.425Z,32.80
2022-08-12T12:20:10.366Z,32.90
2022-08-12T12:22:40.385Z,33.10
2022-08-12T12:25:13.787Z,33.20
2022-08-12T12:28:04.556Z,33.20
2022-08-12T12:30:32.762Z,33.10
2022-08-12T12:32:59.639Z,33.10
2022-08-12T12:36:16.629Z,33.10
2022-08-12T12:38:15.006Z,33.30
2022-08-12T12:40:44.319Z,33.30
2022-08-12T12:43:13.801Z,33.50
2022-08-12T12:45:44.452Z,33.90
2022-08-12T12:48:14.409Z,34.10
2022-08-12T12:50:45.492Z,34.10
2022-08-12T12:54:06.210Z,34.10
2022-08-12T12:56:33.943Z,33.90
2022-08-12T12:59:03.473Z,34.00
2022-08-12T13:01:35.174Z,33.90
2022-08-12T13:04:12.070Z,34.10
2022-08-12T13:06:41.188Z,34.10
2022-08-12T13:09:12.916Z,33.80
2022-08-12T13:11:42.035Z,33.90
2022-08-12T13:14:27.800Z,34.00
2022-08-12T13:16:57.508Z,34.10
2022-08-12T13:19:36.608Z,34.10
2022-08-12T13:22:18.450Z,34.00
2022-08-12T13:24:54.774Z,34.00
2022-08-12T13:27:28.345Z,34.10
2022-08-12T13:30:06.672Z,34.10
2022-08-12T13:32:34.032Z,34.10
2022-08-12T13:35:04.297Z,34.10
2022-08-12T13:37:55.111Z,34.30
2022-08-12T13:40:24.757Z,34.50
2022-08-12T13:42:53.227Z,34.20
2022-08-12T13:45:20.281Z,34.00
2022-08-12T13:48:05.508Z,33.90
2022-08-12T13:50:33.764Z,33.90
2022-08-12T13:53:06.283Z,34.10
2022-08-12T13:56:01.141Z,34.60
2022-08-12T13:58:30.512Z,34.70
2022-08-12T14:00:58.298Z,34.80
2022-08-12T14:03:28.272Z,34.90
2022-08-12T14:06:15.606Z,35.00
2022-08-12T14:08:43.680Z,34.90
2022-08-12T14:11:12.585Z,34.90
2022-08-12T14:14:06.014Z,35.10
2022-08-12T14:16:46.825Z,35.20
2022-08-12T14:19:22.439Z,35.20
2022-08-12T14:22:01.124Z,35.30
2022-08-12T14:24:35.603Z,35.30
2022-08-12T14:27:09.157Z,35.30
2022-08-12T14:30:05.520Z,35.20
2022-08-12T14:32:36.681Z,35.10
2022-08-12T14:35:09.530Z,35.20
2022-08-12T14:37:57.246Z,35.40
2022-08-12T14:40:29.839Z,35.60
2022-08-12T14:42:58.366Z,35.40
2022-08-12T14:45:44.470Z,35.50
2022-08-12T14:48:16.174Z,35.70
2022-08-12T14:51:02.800Z,35.70
2022-08-12T14:59:57.045Z,35.60
2022-08-12T15:02:19.553Z,35.70
2022-08-12T15:04:50.349Z,35.70
2022-08-12T15:07:32.873Z,35.70
2022-08-12T15:10:04.620Z,35.60
2022-08-12T15:12:34.434Z,35.50
2022-08-12T15:15:01.311Z,35.30
2022-08-12T15:17:37.789Z,35.30
2022-08-12T15:20:27.820Z,35.30
2022-08-12T15:22:54.322Z,35.40
2022-08-12T15:25:21.363Z,35.30
2022-08-12T15:28:04.179Z,35.40
2022-08-12T15:30:33.911Z,35.50
2022-08-12T15:33:03.226Z,35.80
2022-08-12T15:35:52.793Z,35.50
2022-08-12T15:38:25.035Z,35.50
2022-08-12T15:40:53.669Z,35.60
2022-08-12T15:44:16.144Z,35.50
2022-08-12T15:46:14.987Z,35.60
2022-08-12T15:48:46.496Z,35.70
2022-08-12T15:51:58.289Z,35.60
2022-08-12T15:54:31.020Z,35.70
2022-08-12T15:57:08.125Z,35.70
2022-08-12T16:00:00.563Z,35.70
2022-08-12T16:02:27.015Z,35.70
2022-08-12T16:04:56.624Z,35.50
2022-08-12T16:07:29.616Z,35.40
2022-08-12T16:10:06.796Z,35.40
2022-08-12T16:12:55.133Z,35.30
2022-08-12T16:15:26.367Z,35.50
2022-08-12T16:18:17.723Z,35.50
2022-08-12T16:20:42.725Z,35.30
2022-08-12T16:23:26.925Z,35.30
2022-08-12T16:26:06.331Z,35.30
2022-08-12T16:28:41.208Z,35.30
2022-08-12T16:31:13.261Z,35.20
2022-08-12T16:33:59.636Z,35.10
2022-08-12T16:36:29.469Z,35.10
2022-08-12T16:38:56.926Z,35.10
2022-08-12T16:41:23.850Z,35.30
2022-08-12T16:43:53.021Z,35.40
2022-08-12T16:46:31.353Z,35.40
2022-08-12T16:49:04.373Z,35.40
2022-08-12T16:51:46.729Z,35.20
2022-08-12T16:54:16.362Z,35.00
2022-08-12T16:56:54.801Z,35.00
2022-08-12T16:59:22.623Z,34.90
2022-08-12T17:01:50.799Z,34.80
2022-08-12T17:04:18.896Z,34.80
2022-08-12T17:06:47.929Z,34.90
2022-08-12T17:09:17.652Z,34.70
2022-08-12T17:11:46.820Z,34.60
2022-08-12T17:14:16.732Z,34.40
2022-08-12T17:16:45.659Z,34.40
2022-08-12T17:19:13.947Z,34.40
2022-08-12T17:22:01.311Z,34.30
2022-08-12T17:24:32.407Z,34.20
2022-08-12T17:27:00.939Z,34.20
2022-08-12T17:30:02.205Z,34.20
2022-08-12T17:32:28.208Z,34.20
2022-08-12T17:35:14.139Z,34.20
2022-08-12T17:37:41.311Z,34.10
2022-08-12T17:40:13.955Z,33.80
2022-08-12T17:42:43.622Z,33.60
2022-08-12T17:45:19.493Z,33.50
2022-08-12T17:48:00.084Z,33.40
2022-08-12T17:50:32.491Z,33.30
2022-08-12T17:53:03.236Z,33.20
2022-08-12T17:55:43.741Z,33.20
2022-08-12T17:58:37.476Z,33.20
2022-08-12T18:01:05.997Z,33.00
2022-08-12T18:04:14.055Z,32.90
2022-08-12T18:06:28.315Z,33.00
2022-08-12T18:08:58.727Z,32.80
2022-08-12T18:12:03.822Z,32.70
2022-08-12T18:14:36.877Z,32.60
2022-08-12T18:17:08.503Z,32.40
2022-08-12T18:20:06.500Z,32.30
2022-08-12T18:22:30.584Z,32.20
2022-08-12T18:25:02.337Z,32.00
2022-08-12T18:27:43.113Z,31.80
2022-08-12T18:30:16.278Z,31.50
2022-08-12T18:32:58.993Z,31.20
2022-08-12T18:35:47.365Z,30.90
2022-08-12T18:38:22.513Z,30.60
2022-08-12T18:41:09.817Z,30.40
2022-08-12T18:43:59.167Z,30.10
2022-08-12T18:46:45.781Z,29.90
2022-08-12T18:49:19.297Z,29.70
2022-08-12T18:52:01.975Z,29.40
2022-08-12T18:54:35.850Z,29.20
2022-08-12T18:57:19.486Z,29.10
2022-08-12T19:00:02.628Z,28.80
2022-08-12T19:02:40.127Z,28.70
2022-08-12T19:05:12.165Z,28.50
2022-08-12T19:07:49.877Z,28.40
2022-08-12T19:10:28.677Z,28.20
2022-08-12T19:13:23.483Z,28.10
2022-08-12T19:15:54.013Z,28.00
2022-08-12T19:18:22.599Z,27.90
2022-08-12T19:20:50.540Z,27.70
2022-08-12T19:23:20.875Z,27.70
2022-08-12T19:26:01.062Z,27.50
2022-08-12T19:28:35.532Z,27.50
2022-08-12T19:31:58.265Z,27.40
2022-08-12T19:38:02.893Z,27.10
2022-08-12T19:40:31.081Z,27.00
2022-08-12T19:43:19.431Z,26.90
2022-08-12T19:45:54.354Z,26.70
2022-08-12T19:48:30.435Z,26.50
2022-08-12T19:50:59.311Z,26.40
2022-08-12T19:53:56.786Z,26.40
2022-08-12T19:56:25.042Z,26.20
2022-08-12T19:58:52.520Z,26.10
2022-08-12T20:01:21.523Z,26.00
2022-08-12T20:03:57.493Z,26.00
2022-08-12T20:06:28.428Z,25.80
2022-08-12T20:08:58.302Z,25.80
2022-08-12T20:12:11.455Z,25.70
2022-08-12T20:14:18.471Z,25.60
2022-08-12T20:16:57.791Z,25.50
2022-08-12T20:20:01.603Z,25.20
2022-08-12T20:22:24.754Z,25.00
2022-08-12T20:25:02.012Z,24.90
2022-08-12T20:28:03.631Z,24.80
2022-08-12T20:30:37.873Z,24.80
2022-08-12T20:33:18.764Z,24.60
2022-08-12T20:36:06.636Z,24.60
2022-08-12T20:38:39.631Z,24.50
2022-08-12T20:41:17.738Z,24.40
2022-08-12T20:43:51.812Z,24.30
2022-08-12T20:46:20.160Z,24.30
2022-08-12T20:48:54.845Z,24.20
2022-08-12T20:51:22.377Z,24.10
2022-08-12T20:53:57.842Z,24.10
2022-08-12T20:56:37.001Z,24.10
2022-08-12T20:59:14.874Z,24.00
2022-08-12T21:01:48.888Z,23.90
2022-08-12T21:04:37.315Z,23.80
2022-08-12T21:07:09.423Z,23.60
2022-08-12T21:09:49.558Z,23.40
2022-08-12T21:12:28.572Z,23.40
2022-08-12T21:15:18.007Z,23.30
2022-08-12T21:18:11.006Z,23.10
2022-08-12T21:20:52.340Z,23.00
2022-08-12T21:23:21.631Z,23.00
2022-08-12T21:25:49.107Z,23.00
2022-08-12T21:28:20.492Z,22.90
2022-08-12T21:31:11.360Z,22.90
2022-08-12T21:33:58.738Z,22.80
2022-08-12T21:36:34.774Z,22.80
2022-08-12T21:39:18.898Z,22.80
2022-08-12T21:41:51.414Z,22.60
2022-08-12T21:44:24.791Z,22.50
2022-08-12T21:47:21.738Z,22.50
2022-08-12T21:50:06.682Z,22.50
2022-08-12T21:52:41.090Z,22.50
2022-08-12T21:55:18.135Z,22.50
2022-08-12T21:57:54.640Z,22.40
2022-08-12T22:00:33.337Z,22.30
2022-08-12T22:04:04.306Z,22.20
2022-08-12T22:06:31.829Z,22.20
2022-08-12T22:09:11.271Z,22.10
2022-08-12T22:11:56.594Z,22.00
2022-08-12T22:14:28.890Z,21.90
2022-08-12T22:16:56.839Z,21.90
2022-08-12T22:19:23.805Z,21.80
2022-08-12T22:21:55.755Z,21.80
2022-08-12T22:24:26.483Z,21.60
2022-08-12T22:27:14.637Z,21.60
2022-08-12T22:30:16.785Z,21.60
2022-08-12T22:32:55.174Z,21.50
2022-08-12T22:35:56.458Z,21.40
2022-08-12T22:38:25.051Z,21.40
2022-08-12T22:41:32.269Z,21.20
2022-08-12T22:44:22.035Z,21.20
2022-08-12T22:47:07.170Z,21.10
2022-08-12T22:49:37.067Z,21.10
2022-08-12T22:52:18.213Z,21.00
2022-08-12T22:55:02.260Z,20.80
2022-08-12T22:57:53.460Z,20.50
2022-08-12T23:00:27.556Z,20.50
2022-08-12T23:03:02.813Z,20.50
2022-08-12T23:05:37.019Z,20.50
2022-08-12T23:08:30.217Z,20.40
2022-08-12T23:11:00.194Z,20.30
2022-08-12T23:13:45.400Z,20.30
2022-08-12T23:16:28.239Z,20.00
2022-08-12T23:19:01.632Z,19.80
2022-08-12T23:22:06.305Z,19.80
2022-08-12T23:24:36.757Z,19.90
2022-08-12T23:27:23.778Z,20.00
2022-08-12T23:30:19.043Z,19.90
2022-08-12T23:32:54.781Z,19.80
2022-08-12T23:35:46.000Z,19.90
2022-08-12T23:38:18.977Z,19.90
2022-08-12T23:40:59.701Z,19.90
2022-08-12T23:43:26.772Z,19.90
2022-08-12T23:46:11.358Z,19.80
2022-08-12T23:48:39.870Z,19.80
2022-08-12T23:51:23.627Z,19.80
2022-08-12T23:53:54.997Z,19.70
2022-08-12T23:56:24.177Z,19.50
2022-08-12T23:58:58.417Z,19.50
